sensor_id;sensor_type;location;lat;lon;timestamp;P1;durP1;ratioP1;P2;durP2;ratioP2
19404;SDS011;9838;49.384;8.292;2022-10-22T00:05:01;0.40;;;0.40;;
19404;SDS011;9838;49.384;8.292;2022-10-22T00:15:03;1.50;;;0.33;;
19404;SDS011;9838;49.384;8.292;2022-10-22T00:25:06;0.20;;;0.20;;
19404;SDS011;9838;49.384;8.292;2022-10-22T00:35:08;0.13;;;0.13;;
19404;SDS011;9838;49.384;8.292;2022-10-22T00:55:12;0.60;;;0.30;;
19404;SDS011;9838;49.384;8.292;2022-10-22T01:05:15;0.67;;;0.30;;
19404;SDS011;9838;49.384;8.292;2022-10-22T01:35:31;1.10;;;0.50;;
19404;SDS011;9838;49.384;8.292;2022-10-22T01:45:42;0.47;;;0.20;;
19404;SDS011;9838;49.384;8.292;2022-10-22T01:56:08;0.10;;;0.10;;
19404;SDS011;9838;49.384;8.292;2022-10-22T02:06:13;0.23;;;0.20;;
19404;SDS011;9838;49.384;8.292;2022-10-22T02:16:18;1.17;;;0.20;;
19404;SDS011;9838;49.384;8.292;2022-10-22T02:26:31;1.07;;;0.40;;
19404;SDS011;9838;49.384;8.292;2022-10-22T02:36:35;1.87;;;0.20;;
19404;SDS011;9838;49.384;8.292;2022-10-22T02:46:38;0.30;;;0.20;;
19404;SDS011;9838;49.384;8.292;2022-10-22T02:56:41;2.90;;;0.20;;
19404;SDS011;9838;49.384;8.292;2022-10-22T03:06:42;0.20;;;0.20;;
19404;SDS011;9838;49.384;8.292;2022-10-22T03:16:44;0.20;;;0.20;;
19404;SDS011;9838;49.384;8.292;2022-10-22T03:26:46;0.20;;;0.20;;
19404;SDS011;9838;49.384;8.292;2022-10-22T03:36:50;0.10;;;0.10;;
19404;SDS011;9838;49.384;8.292;2022-10-22T03:46:53;0.20;;;0.20;;
19404;SDS011;9838;49.384;8.292;2022-10-22T03:56:55;1.60;;;0.20;;
19404;SDS011;9838;49.384;8.292;2022-10-22T04:06:57;0.20;;;0.20;;
19404;SDS011;9838;49.384;8.292;2022-10-22T04:16:59;0.30;;;0.20;;
19404;SDS011;9838;49.384;8.292;2022-10-22T04:27:01;0.17;;;0.17;;
19404;SDS011;9838;49.384;8.292;2022-10-22T04:37:02;0.20;;;0.20;;
19404;SDS011;9838;49.384;8.292;2022-10-22T04:47:04;0.20;;;0.20;;
19404;SDS011;9838;49.384;8.292;2022-10-22T04:57:06;0.60;;;0.40;;
19404;SDS011;9838;49.384;8.292;2022-10-22T05:07:08;0.20;;;0.20;;
19404;SDS011;9838;49.384;8.292;2022-10-22T05:17:09;0.63;;;0.37;;
19404;SDS011;9838;49.384;8.292;2022-10-22T05:27:11;0.60;;;0.33;;
19404;SDS011;9838;49.384;8.292;2022-10-22T05:37:12;0.43;;;0.27;;
19404;SDS011;9838;49.384;8.292;2022-10-22T05:47:15;0.20;;;0.20;;
19404;SDS011;9838;49.384;8.292;2022-10-22T05:57:17;0.23;;;0.20;;
19404;SDS011;9838;49.384;8.292;2022-10-22T06:07:18;0.60;;;0.30;;
19404;SDS011;9838;49.384;8.292;2022-10-22T06:17:20;0.30;;;0.30;;
19404;SDS011;9838;49.384;8.292;2022-10-22T06:27:22;0.20;;;0.20;;
19404;SDS011;9838;49.384;8.292;2022-10-22T06:37:24;0.20;;;0.20;;
19404;SDS011;9838;49.384;8.292;2022-10-22T06:47:25;0.93;;;0.50;;
19404;SDS011;9838;49.384;8.292;2022-10-22T06:57:28;0.57;;;0.30;;
19404;SDS011;9838;49.384;8.292;2022-10-22T07:07:31;0.20;;;0.20;;
19404;SDS011;9838;49.384;8.292;2022-10-22T07:17:33;0.60;;;0.43;;
19404;SDS011;9838;49.384;8.292;2022-10-22T07:27:35;0.47;;;0.30;;
19404;SDS011;9838;49.384;8.292;2022-10-22T07:37:37;0.93;;;0.47;;
19404;SDS011;9838;49.384;8.292;2022-10-22T07:47:39;0.77;;;0.30;;
19404;SDS011;9838;49.384;8.292;2022-10-22T07:57:40;1.37;;;0.30;;
19404;SDS011;9838;49.384;8.292;2022-10-22T08:07:42;0.23;;;0.23;;
19404;SDS011;9838;49.384;8.292;2022-10-22T08:17:44;0.20;;;0.20;;
19404;SDS011;9838;49.384;8.292;2022-10-22T08:27:46;0.20;;;0.20;;
19404;SDS011;9838;49.384;8.292;2022-10-22T08:37:48;0.20;;;0.20;;
19404;SDS011;9838;49.384;8.292;2022-10-22T08:47:55;0.27;;;0.27;;
19404;SDS011;9838;49.384;8.292;2022-10-22T09:08:21;0.20;;;0.20;;
19404;SDS011;9838;49.384;8.292;2022-10-22T09:18:41;0.77;;;0.30;;
19404;SDS011;9838;49.384;8.292;2022-10-22T09:28:53;0.30;;;0.20;;
19404;SDS011;9838;49.384;8.292;2022-10-22T09:38:55;0.20;;;0.20;;
19404;SDS011;9838;49.384;8.292;2022-10-22T09:48:59;0.20;;;0.20;;
19404;SDS011;9838;49.384;8.292;2022-10-22T09:59:02;0.50;;;0.30;;
19404;SDS011;9838;49.384;8.292;2022-10-22T10:09:25;0.50;;;0.30;;
19404;SDS011;9838;49.384;8.292;2022-10-22T10:29:38;0.37;;;0.30;;
19404;SDS011;9838;49.384;8.292;2022-10-22T10:39:54;0.93;;;0.50;;
19404;SDS011;9838;49.384;8.292;2022-10-22T11:00:29;1.13;;;0.53;;
19404;SDS011;9838;49.384;8.292;2022-10-22T11:20:44;1.70;;;0.40;;
19404;SDS011;9838;49.384;8.292;2022-10-22T11:30:52;0.90;;;0.30;;
19404;SDS011;9838;49.384;8.292;2022-10-22T11:41:10;0.47;;;0.30;;
19404;SDS011;9838;49.384;8.292;2022-10-22T12:01:40;0.40;;;0.30;;
19404;SDS011;9838;49.384;8.292;2022-10-22T12:11:46;1.03;;;0.40;;
19404;SDS011;9838;49.384;8.292;2022-10-22T12:21:55;2.00;;;0.30;;
19404;SDS011;9838;49.384;8.292;2022-10-22T12:32:01;1.17;;;0.50;;
19404;SDS011;9838;49.384;8.292;2022-10-22T12:42:03;0.80;;;0.40;;
19404;SDS011;9838;49.384;8.292;2022-10-22T12:52:06;1.40;;;0.80;;
19404;SDS011;9838;49.384;8.292;2022-10-22T13:12:33;2.33;;;0.50;;
19404;SDS011;9838;49.384;8.292;2022-10-22T13:22:37;3.27;;;0.70;;
19404;SDS011;9838;49.384;8.292;2022-10-22T13:32:39;1.30;;;0.50;;
19404;SDS011;9838;49.384;8.292;2022-10-22T13:42:41;0.80;;;0.63;;
19404;SDS011;9838;49.384;8.292;2022-10-22T13:52:49;3.20;;;0.60;;
19404;SDS011;9838;49.384;8.292;2022-10-22T14:02:52;0.67;;;0.30;;
19404;SDS011;9838;49.384;8.292;2022-10-22T14:12:54;1.53;;;0.50;;
19404;SDS011;9838;49.384;8.292;2022-10-22T14:23:02;1.70;;;0.40;;
19404;SDS011;9838;49.384;8.292;2022-10-22T14:33:15;1.63;;;0.60;;
19404;SDS011;9838;49.384;8.292;2022-10-22T14:43:20;0.87;;;0.30;;
19404;SDS011;9838;49.384;8.292;2022-10-22T14:53:23;3.10;;;0.47;;
19404;SDS011;9838;49.384;8.292;2022-10-22T15:03:25;0.50;;;0.30;;
19404;SDS011;9838;49.384;8.292;2022-10-22T15:13:27;0.53;;;0.30;;
19404;SDS011;9838;49.384;8.292;2022-10-22T15:23:30;0.20;;;0.20;;
19404;SDS011;9838;49.384;8.292;2022-10-22T15:33:32;1.60;;;0.50;;
19404;SDS011;9838;49.384;8.292;2022-10-22T15:43:34;1.10;;;0.50;;
19404;SDS011;9838;49.384;8.292;2022-10-22T15:53:36;1.27;;;0.50;;
19404;SDS011;9838;49.384;8.292;2022-10-22T16:03:38;3.17;;;0.80;;
19404;SDS011;9838;49.384;8.292;2022-10-22T16:13:40;5.50;;;1.30;;
19404;SDS011;9838;49.384;8.292;2022-10-22T16:23:42;9.93;;;2.40;;
19404;SDS011;9838;49.384;8.292;2022-10-22T16:33:44;1.37;;;0.80;;
19404;SDS011;9838;49.384;8.292;2022-10-22T16:43:47;0.83;;;0.57;;
19404;SDS011;9838;49.384;8.292;2022-10-22T16:53:50;1.40;;;0.70;;
19404;SDS011;9838;49.384;8.292;2022-10-22T17:03:52;3.23;;;1.00;;
19404;SDS011;9838;49.384;8.292;2022-10-22T17:13:56;2.30;;;0.80;;
19404;SDS011;9838;49.384;8.292;2022-10-22T17:23:58;1.43;;;0.60;;
19404;SDS011;9838;49.384;8.292;2022-10-22T17:34:00;2.63;;;0.60;;
19404;SDS011;9838;49.384;8.292;2022-10-22T17:44:03;1.27;;;0.67;;
19404;SDS011;9838;49.384;8.292;2022-10-22T17:54:05;0.87;;;0.50;;
19404;SDS011;9838;49.384;8.292;2022-10-22T18:04:07;1.30;;;0.80;;
19404;SDS011;9838;49.384;8.292;2022-10-22T18:14:09;1.70;;;0.97;;
19404;SDS011;9838;49.384;8.292;2022-10-22T18:24:13;2.00;;;0.90;;
19404;SDS011;9838;49.384;8.292;2022-10-22T18:34:15;2.43;;;0.83;;
19404;SDS011;9838;49.384;8.292;2022-10-22T18:44:18;4.27;;;0.97;;
19404;SDS011;9838;49.384;8.292;2022-10-22T18:54:20;0.90;;;0.63;;
19404;SDS011;9838;49.384;8.292;2022-10-22T19:04:22;2.03;;;0.70;;
19404;SDS011;9838;49.384;8.292;2022-10-22T19:14:28;2.80;;;0.90;;
19404;SDS011;9838;49.384;8.292;2022-10-22T19:24:30;1.97;;;0.60;;
19404;SDS011;9838;49.384;8.292;2022-10-22T19:34:32;2.30;;;0.90;;
19404;SDS011;9838;49.384;8.292;2022-10-22T19:44:34;1.20;;;0.70;;
19404;SDS011;9838;49.384;8.292;2022-10-22T19:54:36;2.33;;;0.80;;
19404;SDS011;9838;49.384;8.292;2022-10-22T20:04:41;1.37;;;0.80;;
19404;SDS011;9838;49.384;8.292;2022-10-22T20:14:43;1.97;;;1.10;;
19404;SDS011;9838;49.384;8.292;2022-10-22T20:24:44;2.30;;;1.10;;
19404;SDS011;9838;49.384;8.292;2022-10-22T20:34:46;1.83;;;1.00;;
19404;SDS011;9838;49.384;8.292;2022-10-22T20:44:48;2.37;;;1.30;;
19404;SDS011;9838;49.384;8.292;2022-10-22T20:54:50;2.40;;;1.80;;
19404;SDS011;9838;49.384;8.292;2022-10-22T21:04:51;3.00;;;1.60;;
19404;SDS011;9838;49.384;8.292;2022-10-22T21:14:53;2.00;;;1.40;;
19404;SDS011;9838;49.384;8.292;2022-10-22T21:24:55;3.13;;;1.10;;
19404;SDS011;9838;49.384;8.292;2022-10-22T21:34:57;1.53;;;0.90;;
19404;SDS011;9838;49.384;8.292;2022-10-22T21:44:58;2.83;;;1.13;;
19404;SDS011;9838;49.384;8.292;2022-10-22T21:55:00;2.07;;;1.00;;
19404;SDS011;9838;49.384;8.292;2022-10-22T22:05:02;2.63;;;0.90;;
19404;SDS011;9838;49.384;8.292;2022-10-22T22:15:04;1.50;;;0.80;;
19404;SDS011;9838;49.384;8.292;2022-10-22T22:25:07;2.60;;;1.23;;
19404;SDS011;9838;49.384;8.292;2022-10-22T22:35:09;1.47;;;0.90;;
19404;SDS011;9838;49.384;8.292;2022-10-22T22:45:11;1.47;;;0.77;;
19404;SDS011;9838;49.384;8.292;2022-10-22T22:55:14;2.47;;;0.80;;
19404;SDS011;9838;49.384;8.292;2022-10-22T23:05:15;1.63;;;0.80;;
19404;SDS011;9838;49.384;8.292;2022-10-22T23:15:17;2.17;;;0.93;;
19404;SDS011;9838;49.384;8.292;2022-10-22T23:25:19;4.80;;;2.73;;
19404;SDS011;9838;49.384;8.292;2022-10-22T23:35:21;4.00;;;0.90;;
19404;SDS011;9838;49.384;8.292;2022-10-22T23:45:23;2.30;;;1.00;;
19404;SDS011;9838;49.384;8.292;2022-10-22T23:55:24;3.90;;;1.10;;
